Boston, Massachusetts
Traffic Map
Current Weather Conditions
Boston, Massachusetts
Scattered Clouds
Scattered Clouds

Feels Like: -2°
Wind Chill: -2° Ceiling: Unl
Heat Index: Visibility: 10mi
Dew Point: -5° Wind: 18mph
Humidity: 55% Direction: 60° (ENE)
Pressure: 30.83in Gusts: 0mph
Raw Report DataKBOS 171454Z 06016KT 10SM FEW035 SCT250 03/M05 A3083 RMK AO2 SLP437 T00331050 51016
Traffic Incident Summary
Active as of:
Severity:
Category:
InformationThere was an issue retrieving the traffic information for this location. Please try a different location or try again shortly.
Advertisements
At Last! Intellicast now available for iPhone and Android